createdAt,value
2023-04-01T00:14:27.937Z,88.30001
2023-04-01T00:44:47.184Z,88.1
2023-04-01T01:15:04.000Z,88.2
2023-04-01T01:45:21.484Z,88.2
2023-04-01T02:15:39.015Z,88.1
2023-04-01T02:46:01.268Z,89.5
2023-04-01T03:16:21.374Z,90.2
2023-04-01T03:46:41.791Z,90.4
2023-04-01T04:16:59.532Z,90.1
2023-04-01T05:17:34.421Z,90.80001
2023-04-01T05:47:52.952Z,90.1
2023-04-01T06:18:11.479Z,89.5
2023-04-01T06:48:29.758Z,91
2023-04-01T07:18:52.863Z,92
2023-04-01T07:49:12.322Z,88.2
2023-04-01T08:19:32.967Z,91.8
2023-04-01T09:20:08.557Z,97.9
2023-04-01T09:50:26.805Z,97.40001
2023-04-01T10:20:46.352Z,97.9
2023-04-01T10:51:04.545Z,95.2
2023-04-01T11:21:26.643Z,92.2
2023-04-01T11:51:43.408Z,94.40001
2023-04-01T12:21:59.593Z,96.50001
2023-04-01T12:52:20.644Z,96.90001
2023-04-01T13:22:34.451Z,99.90001
2023-04-01T13:52:52.428Z,95.80001
2023-04-01T14:23:11.889Z,94.8
2023-04-01T14:53:27.447Z,95.4
2023-04-01T15:23:45.796Z,91.1
2023-04-01T15:54:03.602Z,93.2
2023-04-01T16:24:22.100Z,94.3
2023-04-01T16:54:37.104Z,96.2
2023-04-01T17:24:57.438Z,95.80001
2023-04-01T17:55:14.353Z,98.2
2023-04-01T18:25:30.870Z,98.5
2023-04-01T18:55:46.448Z,99.6
2023-04-01T19:26:04.045Z,99.7
2023-04-01T19:56:20.638Z,99.90001
2023-04-01T20:26:37.030Z,99.90001
2023-04-01T20:56:56.590Z,99.90001
2023-04-01T21:27:16.794Z,99.90001
2023-04-01T22:27:50.943Z,99.90001
2023-04-01T22:58:09.148Z,99.90001
2023-04-01T23:28:25.959Z,99.90001
2023-04-01T23:58:44.584Z,99.5
